createdAt,value
2017-10-26T00:01:06.529Z,17.33
2017-10-26T00:03:34.021Z,17.32
2017-10-26T00:06:01.529Z,17.26
2017-10-26T00:08:29.007Z,17.22
2017-10-26T00:10:56.580Z,17.03
2017-10-26T00:13:24.095Z,17.21
2017-10-26T00:15:51.597Z,17.27
2017-10-26T00:18:19.066Z,17.31
2017-10-26T00:20:46.578Z,17.25
2017-10-26T00:23:14.066Z,17.19
2017-10-26T00:25:41.555Z,17.23
2017-10-26T00:28:09.013Z,17.32
2017-10-26T00:30:36.508Z,17.27
2017-10-26T00:33:03.989Z,17.19
2017-10-26T00:35:31.456Z,17.16
2017-10-26T00:37:58.971Z,17.14
2017-10-26T00:40:26.440Z,17.19
2017-10-26T00:42:53.897Z,17.17
2017-10-26T00:45:22.366Z,17.13
2017-10-26T00:47:49.836Z,17.15
2017-10-26T00:50:17.347Z,17.12
2017-10-26T00:52:44.805Z,17.10
2017-10-26T00:55:12.296Z,17.06
2017-10-26T00:57:39.864Z,17.04
2017-10-26T01:00:07.364Z,16.90
2017-10-26T01:02:34.882Z,16.79
2017-10-26T01:05:02.341Z,16.84
2017-10-26T01:07:29.820Z,16.83
2017-10-26T01:09:57.277Z,16.74
2017-10-26T01:12:24.762Z,16.70
2017-10-26T01:14:52.233Z,16.60
2017-10-26T01:17:19.711Z,16.58
2017-10-26T01:19:47.180Z,16.53
2017-10-26T01:22:14.644Z,16.50
2017-10-26T01:24:42.120Z,16.45
2017-10-26T01:27:09.580Z,16.51
2017-10-26T01:29:37.067Z,16.58
2017-10-26T01:32:04.548Z,16.59
2017-10-26T01:34:32.038Z,16.65
2017-10-26T01:36:59.520Z,16.65
2017-10-26T01:39:27.009Z,16.59
2017-10-26T01:41:54.497Z,16.57
2017-10-26T01:44:21.970Z,16.59
2017-10-26T01:46:49.471Z,16.45
2017-10-26T01:49:16.939Z,16.49
2017-10-26T01:51:44.470Z,16.54
2017-10-26T01:54:11.982Z,16.59
2017-10-26T01:56:39.445Z,16.62
2017-10-26T01:59:06.929Z,16.50
2017-10-26T02:01:34.384Z,16.53
2017-10-26T02:04:01.866Z,16.62
2017-10-26T02:06:29.329Z,16.59
2017-10-26T02:08:56.840Z,16.62
2017-10-26T02:11:24.307Z,16.59
2017-10-26T02:13:51.771Z,16.49
2017-10-26T02:16:19.298Z,16.59
2017-10-26T02:18:46.754Z,16.54
2017-10-26T02:21:14.345Z,16.61
2017-10-26T02:23:41.892Z,16.39
2017-10-26T02:26:09.438Z,16.49
2017-10-26T02:28:48.757Z,16.49
2017-10-26T02:31:27.981Z,16.54
2017-10-26T02:33:55.440Z,16.59
2017-10-26T02:36:22.922Z,16.63
2017-10-26T02:38:50.417Z,16.54
2017-10-26T02:41:17.872Z,16.56
2017-10-26T02:43:45.364Z,16.51
2017-10-26T02:46:12.853Z,16.43
2017-10-26T02:48:40.345Z,16.55
2017-10-26T02:51:07.808Z,16.48
2017-10-26T02:53:35.283Z,16.53
2017-10-26T02:56:02.779Z,16.47
2017-10-26T02:58:30.760Z,16.42
2017-10-26T03:00:58.257Z,16.28
2017-10-26T03:03:25.808Z,16.30
2017-10-26T03:05:53.350Z,16.05
2017-10-26T03:08:20.889Z,15.90
2017-10-26T03:10:48.379Z,16.17
2017-10-26T03:13:15.860Z,16.21
2017-10-26T03:15:43.335Z,16.25
2017-10-26T03:18:10.835Z,16.31
2017-10-26T03:20:38.299Z,16.40
2017-10-26T03:23:05.771Z,16.49
2017-10-26T03:25:33.274Z,16.49
2017-10-26T03:28:01.206Z,16.53
2017-10-26T03:30:28.732Z,16.41
2017-10-26T03:32:56.187Z,16.45
2017-10-26T03:35:23.663Z,16.45
2017-10-26T03:37:51.143Z,16.37
2017-10-26T03:40:18.635Z,16.33
2017-10-26T03:42:46.124Z,16.35
2017-10-26T03:45:13.582Z,16.37
2017-10-26T03:47:41.064Z,16.32
2017-10-26T03:50:08.516Z,16.26
2017-10-26T03:52:36.018Z,16.15
2017-10-26T03:55:03.509Z,16.13
2017-10-26T03:57:30.988Z,16.09
2017-10-26T03:59:58.540Z,16.00
2017-10-26T04:02:26.019Z,15.93
2017-10-26T04:04:53.496Z,15.88
2017-10-26T04:07:20.974Z,15.88
2017-10-26T04:09:48.436Z,15.88
2017-10-26T04:12:15.928Z,15.89
2017-10-26T04:14:44.348Z,15.87
2017-10-26T04:17:11.805Z,15.96
2017-10-26T04:19:39.303Z,16.03
2017-10-26T04:22:06.802Z,16.15
2017-10-26T04:24:34.409Z,16.14
2017-10-26T04:27:01.885Z,16.06
2017-10-26T04:29:29.533Z,16.01
2017-10-26T04:31:57.057Z,16.08
2017-10-26T04:34:24.823Z,16.07
2017-10-26T04:36:52.296Z,15.93
2017-10-26T04:39:19.763Z,15.96
2017-10-26T04:41:47.251Z,16.01
2017-10-26T04:44:14.762Z,16.03
2017-10-26T04:46:42.480Z,16.06
2017-10-26T04:49:10.069Z,15.97
2017-10-26T04:51:37.772Z,15.94
2017-10-26T04:54:05.345Z,15.87
2017-10-26T04:56:32.926Z,15.89
2017-10-26T04:59:00.617Z,15.80
2017-10-26T05:01:28.127Z,15.47
2017-10-26T05:03:55.728Z,14.83
2017-10-26T05:06:23.426Z,14.95
2017-10-26T05:08:50.918Z,14.79
2017-10-26T05:11:18.443Z,14.76
2017-10-26T05:13:45.925Z,14.77
2017-10-26T05:16:13.390Z,14.81
2017-10-26T05:18:40.848Z,14.90
2017-10-26T05:21:08.396Z,14.98
2017-10-26T05:23:36.011Z,14.89
2017-10-26T05:26:03.532Z,14.94
2017-10-26T05:28:32.050Z,15.05
2017-10-26T05:30:59.605Z,15.05
2017-10-26T05:33:27.124Z,15.19
2017-10-26T05:35:54.580Z,15.28
2017-10-26T05:38:22.105Z,15.28
2017-10-26T05:40:49.599Z,15.20
2017-10-26T05:43:17.208Z,14.79
2017-10-26T05:45:44.714Z,14.51
2017-10-26T05:48:12.212Z,15.09
2017-10-26T05:50:39.724Z,14.64
2017-10-26T05:53:07.266Z,14.70
2017-10-26T05:55:34.758Z,14.82
2017-10-26T05:58:02.241Z,14.88
2017-10-26T06:00:29.729Z,14.73
2017-10-26T06:02:57.211Z,14.86
2017-10-26T06:05:24.714Z,15.07
2017-10-26T06:07:52.202Z,15.18
2017-10-26T06:10:19.740Z,15.08
2017-10-26T06:12:47.248Z,15.14
2017-10-26T06:15:14.705Z,15.28
2017-10-26T06:17:42.199Z,15.07
2017-10-26T06:20:09.776Z,15.10
2017-10-26T06:22:37.281Z,15.04
2017-10-26T06:25:04.740Z,15.00
2017-10-26T06:27:32.228Z,14.76
2017-10-26T06:29:59.764Z,14.86
2017-10-26T06:32:27.231Z,14.66
2017-10-26T06:34:54.823Z,14.74
2017-10-26T06:37:22.364Z,14.91
2017-10-26T06:39:49.866Z,15.00
2017-10-26T06:42:17.365Z,14.88
2017-10-26T06:44:44.912Z,14.86
2017-10-26T06:47:12.420Z,14.88
2017-10-26T06:49:39.959Z,14.55
2017-10-26T06:52:07.484Z,14.24
2017-10-26T06:54:35.042Z,14.51
2017-10-26T06:57:03.070Z,14.53
2017-10-26T06:59:30.558Z,14.25
2017-10-26T07:01:58.127Z,14.20
2017-10-26T07:04:25.756Z,14.10
2017-10-26T07:06:53.296Z,14.36
2017-10-26T07:09:20.938Z,14.38
2017-10-26T07:11:48.446Z,14.53
2017-10-26T07:14:15.958Z,14.50
2017-10-26T07:16:43.516Z,14.63
2017-10-26T07:19:11.102Z,14.50
2017-10-26T07:21:38.661Z,14.65
2017-10-26T07:24:06.165Z,14.57
2017-10-26T07:26:34.551Z,14.40
2017-10-26T07:29:02.089Z,14.32
2017-10-26T07:31:29.621Z,13.99
2017-10-26T07:33:57.125Z,13.72
2017-10-26T07:36:24.872Z,13.64
2017-10-26T07:38:53.453Z,13.82
2017-10-26T07:41:23.670Z,14.01
2017-10-26T07:44:02.272Z,14.18
2017-10-26T07:46:29.985Z,13.92
2017-10-26T07:49:01.662Z,14.18
2017-10-26T07:51:30.459Z,14.55
2017-10-26T07:53:58.234Z,14.65
2017-10-26T07:56:30.434Z,14.53
2017-10-26T07:59:14.210Z,14.84
2017-10-26T08:01:42.589Z,14.73
2017-10-26T08:04:10.163Z,14.68
2017-10-26T08:06:44.140Z,14.51
2017-10-26T08:17:16.933Z,14.59
2017-10-26T08:19:44.595Z,14.56
2017-10-26T08:47:11.313Z,15.54
2017-10-26T08:49:39.576Z,15.82
2017-10-26T08:52:07.117Z,15.69
2017-10-26T08:54:34.691Z,15.69
2017-10-26T08:57:05.141Z,16.29
2017-10-26T08:59:32.662Z,16.72
2017-10-26T09:02:00.279Z,16.94
2017-10-26T09:04:28.227Z,17.22
2017-10-26T09:06:55.892Z,17.05
2017-10-26T09:09:24.009Z,17.15
2017-10-26T09:11:51.546Z,17.32
2017-10-26T09:14:19.103Z,17.46
2017-10-26T09:16:46.901Z,17.79
2017-10-26T09:19:14.456Z,17.85
2017-10-26T09:21:42.939Z,17.81
2017-10-26T09:24:10.552Z,17.80
2017-10-26T09:26:38.116Z,17.83
2017-10-26T09:29:06.181Z,17.92
2017-10-26T09:31:33.664Z,17.92
2017-10-26T09:34:01.173Z,17.93
2017-10-26T09:36:28.752Z,18.03
2017-10-26T09:38:56.307Z,18.00
2017-10-26T09:41:24.722Z,17.87
2017-10-26T09:43:52.776Z,17.92
2017-10-26T09:46:20.598Z,17.84
2017-10-26T09:48:48.245Z,17.74
2017-10-26T09:51:15.836Z,17.94
2017-10-26T09:53:43.359Z,17.94
2017-10-26T09:56:10.960Z,18.03
2017-10-26T09:58:39.084Z,18.21
2017-10-26T10:01:06.710Z,18.35
2017-10-26T10:03:34.631Z,18.30
2017-10-26T10:06:02.496Z,18.33
2017-10-26T10:08:30.326Z,18.31
2017-10-26T10:10:58.048Z,18.01
2017-10-26T10:13:26.616Z,18.04
2017-10-26T10:15:55.363Z,17.89
2017-10-26T10:18:22.964Z,17.88
2017-10-26T10:20:50.495Z,18.20
2017-10-26T10:23:19.345Z,18.15
2017-10-26T10:28:41.467Z,17.63
2017-10-26T10:34:47.153Z,17.78
2017-10-26T10:37:22.846Z,17.80
2017-10-26T10:39:51.075Z,18.64
2017-10-26T10:42:20.439Z,20.40
2017-10-26T10:53:18.148Z,26.41
2017-10-26T10:55:49.085Z,25.80
2017-10-26T10:58:36.983Z,27.01
2017-10-26T11:01:05.778Z,27.16
2017-10-26T11:03:33.634Z,26.86
2017-10-26T11:06:01.192Z,28.24
2017-10-26T11:08:30.819Z,27.63
2017-10-26T11:10:58.505Z,27.34
2017-10-26T11:13:26.166Z,28.25
2017-10-26T11:15:54.463Z,28.21
2017-10-26T11:18:22.261Z,27.04
2017-10-26T11:20:49.987Z,27.60
2017-10-26T11:23:17.877Z,27.87
2017-10-26T11:25:45.711Z,27.66
2017-10-26T11:28:14.507Z,26.93
2017-10-26T11:30:43.084Z,28.13
2017-10-26T11:33:12.103Z,26.85
2017-10-26T11:35:39.703Z,27.93
2017-10-26T11:38:07.343Z,29.92
2017-10-26T11:40:38.095Z,30.52
2017-10-26T11:43:06.012Z,31.44
2017-10-26T11:45:34.807Z,31.67
2017-10-26T11:48:02.367Z,31.63
2017-10-26T11:50:30.963Z,31.77
2017-10-26T11:52:58.498Z,32.45
2017-10-26T11:55:26.114Z,33.06
2017-10-26T11:57:53.629Z,33.22
2017-10-26T12:00:21.363Z,32.97
2017-10-26T12:02:48.998Z,33.37
2017-10-26T12:05:16.765Z,33.02
2017-10-26T12:07:44.356Z,33.38
2017-10-26T12:10:12.247Z,32.85
2017-10-26T12:12:39.787Z,32.88
2017-10-26T12:17:41.335Z,32.97
2017-10-26T12:20:09.178Z,33.52
2017-10-26T12:22:36.673Z,33.30
2017-10-26T12:25:04.427Z,32.95
2017-10-26T12:27:31.965Z,32.09
2017-10-26T12:29:59.643Z,32.76
2017-10-26T12:32:27.408Z,32.13
2017-10-26T12:34:55.039Z,33.14
2017-10-26T12:37:23.492Z,31.58
2017-10-26T12:39:51.156Z,31.94
2017-10-26T12:42:18.829Z,30.33
2017-10-26T12:44:46.515Z,30.06
2017-10-26T12:47:14.134Z,29.07
2017-10-26T12:49:41.636Z,29.65
2017-10-26T12:52:09.238Z,28.91
2017-10-26T12:54:36.874Z,27.79
2017-10-26T12:57:05.072Z,28.19
2017-10-26T12:59:33.144Z,28.62
2017-10-26T13:02:00.861Z,28.61
2017-10-26T13:04:29.038Z,28.98
2017-10-26T13:06:56.709Z,28.47
2017-10-26T13:09:24.436Z,29.15
2017-10-26T13:11:53.453Z,28.69
2017-10-26T13:14:21.379Z,29.31
2017-10-26T13:16:52.621Z,29.69
2017-10-26T13:19:20.305Z,29.48
2017-10-26T13:21:48.028Z,28.75
2017-10-26T13:24:17.619Z,27.77
2017-10-26T13:26:46.381Z,27.76
2017-10-26T13:29:14.373Z,27.63
2017-10-26T13:31:42.130Z,28.03
2017-10-26T13:34:10.445Z,27.59
2017-10-26T13:36:38.069Z,27.50
2017-10-26T13:39:05.687Z,27.05
2017-10-26T13:41:33.233Z,26.42
2017-10-26T13:44:00.898Z,26.27
2017-10-26T13:46:28.453Z,25.89
2017-10-26T13:48:56.068Z,25.79
2017-10-26T13:51:23.712Z,25.08
2017-10-26T13:53:52.171Z,25.06
2017-10-26T13:56:19.899Z,24.59
2017-10-26T13:58:49.514Z,24.98
2017-10-26T14:01:17.450Z,24.61
2017-10-26T14:03:45.255Z,24.72
2017-10-26T14:06:12.940Z,24.58
2017-10-26T14:08:40.744Z,24.72
2017-10-26T14:11:09.543Z,24.38
2017-10-26T14:13:37.526Z,24.13
2017-10-26T14:16:05.199Z,24.21
2017-10-26T14:18:34.135Z,24.08
2017-10-26T14:21:01.882Z,23.54
2017-10-26T14:23:29.421Z,23.54
2017-10-26T14:25:57.384Z,23.33
2017-10-26T14:28:25.057Z,23.46
2017-10-26T14:30:53.320Z,23.61
2017-10-26T14:33:23.435Z,23.44
2017-10-26T14:35:51.008Z,23.45
2017-10-26T14:38:18.832Z,23.59
2017-10-26T14:40:46.470Z,23.22
2017-10-26T14:43:14.954Z,23.31
2017-10-26T14:45:42.773Z,22.60
2017-10-26T14:48:11.567Z,22.99
2017-10-26T14:50:39.301Z,22.88
2017-10-26T14:53:07.087Z,22.90
2017-10-26T14:55:35.171Z,22.71
2017-10-26T14:58:02.691Z,22.65
2017-10-26T15:00:30.207Z,22.58
2017-10-26T15:02:57.770Z,22.62
2017-10-26T15:05:26.030Z,22.52
2017-10-26T15:07:54.559Z,22.58
2017-10-26T15:10:22.153Z,22.16
2017-10-26T15:12:49.899Z,21.92
2017-10-26T15:15:17.668Z,21.92
2017-10-26T15:17:45.227Z,22.00
2017-10-26T15:20:12.886Z,22.03
2017-10-26T15:22:40.489Z,22.12
2017-10-26T15:25:08.083Z,22.14
2017-10-26T15:27:35.792Z,21.91
2017-10-26T15:30:04.168Z,21.92
2017-10-26T15:32:31.708Z,21.84
2017-10-26T15:34:59.280Z,21.65
2017-10-26T15:37:29.744Z,21.58
2017-10-26T15:39:57.569Z,21.56
2017-10-26T15:42:25.401Z,21.46
2017-10-26T15:44:53.276Z,21.18
2017-10-26T15:47:21.317Z,21.31
2017-10-26T15:49:49.212Z,21.29
2017-10-26T15:52:16.820Z,21.21
2017-10-26T15:54:44.446Z,20.87
2017-10-26T15:57:12.242Z,20.94
2017-10-26T15:59:41.300Z,21.00
2017-10-26T16:02:08.845Z,20.96
2017-10-26T16:04:36.371Z,20.95
2017-10-26T16:07:03.873Z,20.99
2017-10-26T16:09:31.470Z,20.94
2017-10-26T16:11:59.035Z,20.82
2017-10-26T16:14:26.546Z,20.71
2017-10-26T16:16:54.306Z,20.52
2017-10-26T16:19:22.537Z,20.57
2017-10-26T16:21:50.276Z,20.37
2017-10-26T16:24:17.829Z,20.36
2017-10-26T16:26:45.667Z,20.31
2017-10-26T16:29:13.219Z,20.32
2017-10-26T16:31:40.744Z,20.17
2017-10-26T16:34:08.340Z,20.09
2017-10-26T16:36:36.259Z,20.13
2017-10-26T16:39:03.769Z,20.06
2017-10-26T16:41:31.232Z,20.03
2017-10-26T16:43:59.598Z,19.96
2017-10-26T16:46:27.086Z,19.90
2017-10-26T16:48:54.573Z,19.90
2017-10-26T16:51:22.069Z,19.82
2017-10-26T16:53:49.534Z,19.72
2017-10-26T16:56:17.013Z,19.61
2017-10-26T16:58:44.490Z,19.57
2017-10-26T17:01:11.981Z,19.54
2017-10-26T17:03:39.477Z,19.44
2017-10-26T17:06:06.948Z,19.48
2017-10-26T17:08:34.421Z,19.43
2017-10-26T17:11:01.964Z,19.09
2017-10-26T17:13:29.491Z,19.19
2017-10-26T17:15:57.055Z,19.16
2017-10-26T17:18:24.640Z,18.88
2017-10-26T17:20:54.638Z,18.97
2017-10-26T17:23:28.866Z,18.96
2017-10-26T17:25:59.300Z,18.96
2017-10-26T17:28:27.179Z,19.02
2017-10-26T17:30:54.687Z,19.00
2017-10-26T17:33:22.256Z,18.81
2017-10-26T17:35:49.759Z,18.75
2017-10-26T17:38:17.341Z,18.63
2017-10-26T17:40:44.910Z,18.57
2017-10-26T17:43:12.470Z,19.00
2017-10-26T17:45:40.007Z,18.67
2017-10-26T17:48:07.673Z,18.60
2017-10-26T17:50:35.205Z,18.41
2017-10-26T17:53:02.865Z,18.25
2017-10-26T17:55:31.142Z,17.98
2017-10-26T17:57:58.846Z,18.00
2017-10-26T18:00:26.451Z,17.99
2017-10-26T18:02:54.068Z,17.94
2017-10-26T18:05:21.567Z,18.02
2017-10-26T18:07:49.097Z,18.00
2017-10-26T18:10:16.638Z,18.08
2017-10-26T18:12:44.142Z,18.12
2017-10-26T18:15:11.633Z,18.08
2017-10-26T18:17:39.250Z,17.92
2017-10-26T18:20:06.764Z,18.05
2017-10-26T18:22:34.261Z,18.06
2017-10-26T18:25:02.465Z,17.99
2017-10-26T18:27:29.941Z,17.88
2017-10-26T18:29:57.456Z,17.87
2017-10-26T18:32:24.959Z,17.60
2017-10-26T18:34:52.480Z,17.67
2017-10-26T18:37:19.974Z,17.69
2017-10-26T18:39:47.515Z,17.71
2017-10-26T18:42:14.997Z,17.75
2017-10-26T18:44:42.494Z,17.70
2017-10-26T18:47:10.003Z,17.75
2017-10-26T18:49:37.503Z,17.79
2017-10-26T18:52:05.016Z,17.70
2017-10-26T18:54:32.589Z,17.65
2017-10-26T18:57:00.425Z,17.61
2017-10-26T18:59:27.885Z,17.61
2017-10-26T19:01:55.393Z,17.58
2017-10-26T19:04:22.941Z,17.53
2017-10-26T19:06:50.473Z,17.48
2017-10-26T19:09:17.971Z,17.51
2017-10-26T19:11:45.507Z,17.41
2017-10-26T19:14:13.036Z,17.52
2017-10-26T19:16:40.515Z,17.42
2017-10-26T19:19:08.009Z,17.34
2017-10-26T19:21:35.492Z,17.36
2017-10-26T19:24:02.985Z,17.30
2017-10-26T19:26:30.484Z,17.31
2017-10-26T19:28:57.968Z,17.24
2017-10-26T19:31:25.472Z,17.24
2017-10-26T19:33:53.139Z,17.14
2017-10-26T19:36:20.959Z,17.15
2017-10-26T19:38:48.453Z,17.05
2017-10-26T19:41:15.926Z,17.00
2017-10-26T19:43:43.464Z,17.10
2017-10-26T19:46:10.956Z,17.05
2017-10-26T19:48:38.502Z,16.87
2017-10-26T19:51:05.965Z,16.76
2017-10-26T19:53:34.061Z,16.77
2017-10-26T19:56:01.897Z,16.77
2017-10-26T19:58:29.750Z,16.83
2017-10-26T20:00:58.184Z,16.85
2017-10-26T20:03:26.762Z,16.83
2017-10-26T20:05:55.529Z,16.84
2017-10-26T20:08:23.386Z,16.82
2017-10-26T20:10:51.199Z,16.77
2017-10-26T20:13:19.011Z,16.59
2017-10-26T20:15:47.029Z,16.39
2017-10-26T20:18:16.029Z,16.41
2017-10-26T20:20:43.729Z,16.36
2017-10-26T20:23:16.077Z,16.38
2017-10-26T20:25:43.958Z,16.36
2017-10-26T20:28:11.600Z,16.37
2017-10-26T20:30:39.329Z,16.46
2017-10-26T20:33:07.460Z,16.34
2017-10-26T20:35:37.144Z,16.44
2017-10-26T20:38:07.482Z,16.59
2017-10-26T20:40:39.581Z,16.62
2017-10-26T20:43:08.035Z,16.63
2017-10-26T20:45:37.200Z,16.60
2017-10-26T20:48:07.470Z,16.68
2017-10-26T20:50:42.787Z,16.56
2017-10-26T20:53:16.463Z,16.59
2017-10-26T20:55:49.771Z,16.34
2017-10-26T20:58:23.329Z,16.52
2017-10-26T21:00:56.742Z,16.55
2017-10-26T21:03:30.033Z,16.51
2017-10-26T21:06:03.513Z,16.50
2017-10-26T21:08:36.767Z,16.44
2017-10-26T21:11:10.001Z,16.54
2017-10-26T21:16:48.868Z,16.52
2017-10-26T21:19:17.323Z,16.53
2017-10-26T21:21:45.918Z,16.43
2017-10-26T21:24:14.184Z,16.28
2017-10-26T21:26:41.808Z,16.38
2017-10-26T21:29:09.464Z,16.40
2017-10-26T21:31:37.072Z,16.37
2017-10-26T21:34:04.595Z,16.35
2017-10-26T21:36:32.241Z,16.34
2017-10-26T21:38:59.814Z,16.47
2017-10-26T21:41:28.289Z,16.49
2017-10-26T21:43:56.749Z,16.29
2017-10-26T21:46:24.399Z,16.26
2017-10-26T21:48:55.469Z,16.14
2017-10-26T21:51:23.919Z,15.97
2017-10-26T21:53:51.580Z,16.16
2017-10-26T21:56:21.251Z,16.14
2017-10-26T21:58:52.737Z,16.07
2017-10-26T22:01:20.769Z,16.00
2017-10-26T22:03:48.306Z,15.93
2017-10-26T22:06:16.508Z,15.92
2017-10-26T22:08:44.073Z,15.87
2017-10-26T22:11:11.797Z,15.84
2017-10-26T22:13:40.340Z,15.86
2017-10-26T22:16:08.546Z,15.82
2017-10-26T22:18:37.996Z,15.83
2017-10-26T22:21:06.228Z,15.87
2017-10-26T22:23:34.029Z,15.92
2017-10-26T22:26:02.742Z,15.85
2017-10-26T22:28:30.612Z,15.77
2017-10-26T22:30:58.243Z,15.76
2017-10-26T22:33:26.476Z,15.75
2017-10-26T22:35:54.172Z,15.66
2017-10-26T22:38:22.048Z,15.72
2017-10-26T22:40:50.868Z,15.63
2017-10-26T22:43:19.526Z,15.65
2017-10-26T22:45:47.170Z,15.63
2017-10-26T22:48:15.330Z,15.52
2017-10-26T22:50:42.940Z,15.53
2017-10-26T22:53:11.551Z,15.48
2017-10-26T22:55:40.432Z,15.55
2017-10-26T22:58:08.780Z,15.59
2017-10-26T23:00:36.900Z,15.61
2017-10-26T23:03:04.558Z,15.68
2017-10-26T23:05:32.257Z,15.65
2017-10-26T23:08:03.959Z,15.64
2017-10-26T23:10:32.887Z,15.63
2017-10-26T23:13:01.130Z,15.68
2017-10-26T23:15:28.731Z,15.70
2017-10-26T23:17:56.444Z,15.60
2017-10-26T23:20:24.091Z,15.35
2017-10-26T23:22:52.250Z,15.47
2017-10-26T23:25:20.386Z,15.40
2017-10-26T23:27:48.043Z,15.47
2017-10-26T23:30:16.047Z,15.45
2017-10-26T23:32:45.688Z,15.29
2017-10-26T23:35:13.379Z,15.16
2017-10-26T23:37:42.112Z,15.16
2017-10-26T23:40:11.078Z,15.27
2017-10-26T23:42:38.936Z,15.38
2017-10-26T23:45:07.483Z,15.44
2017-10-26T23:47:35.953Z,15.43
2017-10-26T23:50:03.457Z,14.92
2017-10-26T23:52:31.873Z,15.39
2017-10-26T23:54:59.517Z,15.42
2017-10-26T23:57:28.157Z,15.56
2017-10-26T23:59:55.815Z,15.54
